CheckWX is a tool to help pilots better visualize weather data.  It is not intended as a substitute for an official pre-flight weather briefing.

06:12:25 UTC

KDWH METAR
David Wayne Hooks Memorial Airport
Houston, Texas, USA
Current

19 mins ago

KDWH 280553Z AUTO 15011KT 7SM OVC015 13/09 A2996 RMK AO2 SLP143 T01280089 10139 20128 401890089 58014
Observed
Jan-28 @ 05:53 UTC
Wind
  • 150° at 11 KTS
Visibility
7 SM
Flight Rules
MVFR
Cloud Levels
  • Overcast at 1,500' AGL
Temperature
13°C / 55°F
Dewpoint
C / 48°F
Humidity
77%
Altimeter
29.96" Hg
Pressure
1014.52 hPa
Previous

1 hour ago

KDWH 280453Z AUTO 13010KT 7SM OVC015 13/09 A2998 RMK AO2 SLP152 T01330089
Observed
Jan-28 @ 04:53 UTC
Wind
  • 130° at 10 KTS
Visibility
7 SM
Flight Rules
MVFR
Cloud Levels
  • Overcast at 1,500' AGL
Temperature
13°C / 55°F
Dewpoint
C / 48°F
Humidity
77%
Altimeter
29.98" Hg
Pressure
1015.22 hPa
Previous

2 hours ago

KDWH 280353Z 13007KT 9SM OVC012 13/09 A2999 RMK AO2 SLP155 T01280094
Observed
Jan-28 @ 03:53 UTC
Wind
  • 130° at 7 KTS
Visibility
9 SM
Flight Rules
MVFR
Cloud Levels
  • Overcast at 1,200' AGL
Temperature
13°C / 55°F
Dewpoint
C / 48°F
Humidity
77%
Altimeter
29.99" Hg
Pressure
1015.62 hPa